Time;durP1;ratioP1;P1;durP2;ratioP2;P2;SDS_P1;SDS_P2;PMS_P1;PMS_P2;Temp;Humidity;BMP_temperature;BMP_pressure;BME280_temperature;BME280_humidity;BME280_pressure;Samples;Min_cycle;Max_cycle;Signal;HPM_P1;HPM_P2
2022/10/10 00:01:30;;;;;;;11.35;3.28;;;8.80;99.90;;;;;;5010481;28;20053;-82
2022/10/10 00:03:56;;;;;;;10.70;3.40;;;8.70;99.90;;;;;;5020932;28;20653;-85
2022/10/10 00:06:23;;;;;;;8.90;3.00;;;8.80;99.90;;;;;;5029302;28;20053;-80
2022/10/10 00:08:49;;;;;;;7.32;3.33;;;8.80;99.90;;;;;;5027424;28;20073;-84
2022/10/10 00:11:22;;;;;;;6.97;3.20;;;8.80;99.90;;;;;;5029297;28;20038;-83
2022/10/10 00:13:48;;;;;;;6.40;2.85;;;8.70;99.90;;;;;;4993567;28;20049;-84
2022/10/10 00:16:14;;;;;;;4.50;2.50;;;8.70;99.90;;;;;;4992099;28;20056;-83
2022/10/10 00:18:40;;;;;;;10.93;3.20;;;8.70;99.90;;;;;;5027641;28;20073;-84
2022/10/10 00:21:07;;;;;;;6.32;3.10;;;8.70;99.90;;;;;;5028011;28;20045;-84
2022/10/10 00:23:32;;;;;;;17.90;3.53;;;8.70;99.90;;;;;;5028859;28;20461;-84
2022/10/10 00:25:58;;;;;;;6.95;3.05;;;8.60;99.90;;;;;;5011322;28;20085;-82
2022/10/10 00:28:24;;;;;;;5.38;3.17;;;8.60;99.90;;;;;;5028001;28;20485;-82
2022/10/10 00:30:50;;;;;;;8.23;3.28;;;8.90;99.90;;;;;;5028712;28;20123;-83
2022/10/10 00:33:15;;;;;;;8.45;3.08;;;9.00;99.90;;;;;;5021487;28;20041;-81
2022/10/10 00:35:41;;;;;;;4.88;2.83;;;8.60;99.90;;;;;;5027470;28;20069;-85
2022/10/10 00:38:07;;;;;;;5.70;2.90;;;8.60;99.90;;;;;;5010934;28;20049;-84
2022/10/10 00:40:33;;;;;;;11.77;2.90;;;8.50;99.90;;;;;;5028796;28;20081;-86
2022/10/10 00:42:59;;;;;;;8.98;3.00;;;8.50;99.90;;;;;;5027560;28;20061;-84
2022/10/10 00:45:38;;;;;;;7.13;3.22;;;8.50;99.90;;;;;;5010526;28;20041;-84
2022/10/10 00:48:19;;;;;;;8.02;2.90;;;8.40;99.90;;;;;;4998252;28;20060;-82
2022/10/10 00:50:50;;;;;;;9.32;2.83;;;8.40;99.90;;;;;;5031985;28;20045;-84
2022/10/10 00:53:20;;;;;;;5.43;3.03;;;8.40;99.90;;;;;;5014902;28;20054;-84
2022/10/10 00:55:50;;;;;;;6.18;3.40;;;8.40;99.90;;;;;;5014758;28;20054;-83
2022/10/10 00:58:19;;;;;;;5.78;2.70;;;8.40;99.90;;;;;;4997477;28;20041;-85
2022/10/10 01:00:45;;;;;;;8.90;3.58;;;8.30;99.90;;;;;;5014191;28;20060;-83
2022/10/10 01:03:11;;;;;;;5.22;3.03;;;8.30;99.90;;;;;;5023358;28;20408;-83
2022/10/10 01:05:39;;;;;;;7.50;3.33;;;8.30;99.90;;;;;;5032357;28;20045;-86
2022/10/10 01:08:06;;;;;;;8.10;3.28;;;8.30;99.90;;;;;;5024134;28;20050;-84
2022/10/10 01:10:35;;;;;;;8.05;3.53;;;8.20;99.90;;;;;;5031096;28;20824;-85
2022/10/10 01:13:06;;;;;;;7.28;3.25;;;8.60;99.90;;;;;;5032204;28;20056;-86
2022/10/10 01:15:49;;;;;;;7.63;3.53;;;8.30;99.90;;;;;;5031242;28;20519;-83
2022/10/10 01:18:23;;;;;;;11.02;3.22;;;8.50;99.90;;;;;;5031136;28;20045;-84
2022/10/10 01:21:08;;;;;;;9.30;3.20;;;8.20;99.90;;;;;;5032028;28;20041;-84
2022/10/10 01:23:52;;;;;;;4.90;3.20;;;8.50;99.90;;;;;;5023763;28;20057;-84
2022/10/10 01:26:23;;;;;;;5.68;3.13;;;8.10;99.90;;;;;;5014393;28;20049;-84
2022/10/10 01:29:01;;;;;;;8.23;3.42;;;8.10;99.90;;;;;;5032029;28;20041;-84
2022/10/10 01:31:28;;;;;;;6.40;3.13;;;8.60;99.90;;;;;;5030365;28;20099;-83
2022/10/10 01:34:19;;;;;;;7.78;3.38;;;8.10;99.90;;;;;;5031705;28;20080;-83
2022/10/10 01:37:08;;;;;;;7.75;3.10;;;8.10;99.90;;;;;;5013793;28;20038;-84
2022/10/10 01:40:13;;;;;;;6.85;3.75;;;8.00;99.90;;;;;;4980213;28;20063;-80
2022/10/10 01:42:53;;;;;;;5.97;3.72;;;8.00;99.90;;;;;;4979049;28;20081;-84
2022/10/10 01:45:19;;;;;;;7.30;3.47;;;8.00;99.90;;;;;;4978185;28;20509;-85
2022/10/10 01:47:46;;;;;;;6.45;3.30;;;8.00;99.90;;;;;;4955343;28;20058;-85
2022/10/10 01:50:16;;;;;;;7.47;3.33;;;8.00;99.90;;;;;;4978497;28;20454;-83
2022/10/10 01:52:59;;;;;;;6.97;3.33;;;8.00;99.90;;;;;;4961984;28;20061;-79
2022/10/10 01:55:47;;;;;;;6.55;3.47;;;8.20;99.90;;;;;;4981633;28;20086;-84
2022/10/10 01:58:18;;;;;;;10.45;4.10;;;8.00;99.90;;;;;;4978164;28;20155;-85
2022/10/10 02:00:51;;;;;;;9.23;3.67;;;8.00;99.90;;;;;;4963033;28;20074;-83
2022/10/10 02:03:25;;;;;;;11.02;3.92;;;8.00;99.90;;;;;;4987503;28;20121;-84
2022/10/10 02:06:06;;;;;;;8.63;3.70;;;7.90;99.90;;;;;;4981051;28;20230;-80
2022/10/10 02:08:44;;;;;;;5.95;3.60;;;8.00;99.90;;;;;;4948339;28;20058;-86
2022/10/10 02:11:12;;;;;;;6.78;3.72;;;8.00;99.90;;;;;;4968768;28;20058;-83
2022/10/10 02:13:48;;;;;;;7.93;3.70;;;8.70;99.90;;;;;;4974057;28;20047;-81
2022/10/10 02:16:28;;;;;;;8.07;4.47;;;8.30;99.90;;;;;;4999008;28;20053;-81
2022/10/10 02:18:56;;;;;;;10.10;4.13;;;7.70;99.90;;;;;;5018726;28;20048;-82
2022/10/10 02:21:23;;;;;;;9.13;3.80;;;7.90;99.90;;;;;;5016041;28;20077;-84
2022/10/10 02:23:52;;;;;;;7.03;3.80;;;7.90;99.90;;;;;;5030957;28;20041;-84
2022/10/10 02:26:21;;;;;;;12.07;4.18;;;7.90;99.90;;;;;;5024210;28;20046;-83
2022/10/10 02:29:05;;;;;;;9.40;4.55;;;8.50;99.90;;;;;;5030276;28;20046;-83
2022/10/10 02:31:36;;;;;;;8.73;3.88;;;7.90;99.90;;;;;;5022315;28;20078;-83
2022/10/10 02:34:08;;;;;;;13.40;3.97;;;7.90;99.90;;;;;;5030380;28;20072;-83
2022/10/10 02:36:35;;;;;;;8.25;3.97;;;8.00;99.90;;;;;;4996593;28;20061;-85
2022/10/10 02:39:02;;;;;;;8.68;4.35;;;7.80;99.90;;;;;;4996702;28;20053;-81
2022/10/10 02:41:29;;;;;;;8.32;4.15;;;8.20;99.90;;;;;;5029389;28;20045;-81
2022/10/10 02:43:57;;;;;;;10.50;4.25;;;7.80;99.90;;;;;;5030096;28;20097;-85
2022/10/10 02:46:23;;;;;;;10.57;4.43;;;7.80;99.90;;;;;;5013521;28;20104;-82
2022/10/10 02:48:49;;;;;;;10.10;4.50;;;7.80;99.90;;;;;;5031537;28;20037;-88
2022/10/10 02:51:16;;;;;;;9.27;4.55;;;8.40;99.90;;;;;;5031247;28;20041;-84
2022/10/10 02:53:41;;;;;;;7.13;4.40;;;7.80;99.90;;;;;;4994790;28;20049;-78
2022/10/10 02:56:07;;;;;;;8.75;4.30;;;7.80;99.90;;;;;;5023867;28;20057;-84
2022/10/10 02:58:34;;;;;;;12.27;4.50;;;7.90;99.90;;;;;;5020381;28;20049;-84
2022/10/10 03:01:05;;;;;;;8.75;4.70;;;8.00;99.90;;;;;;5030126;28;20045;-84
2022/10/10 03:03:30;;;;;;;9.50;4.70;;;7.70;99.90;;;;;;5011276;28;20053;-82
2022/10/10 03:05:56;;;;;;;11.52;4.40;;;7.70;99.90;;;;;;5029100;28;20166;-84
2022/10/10 03:08:22;;;;;;;8.45;4.28;;;8.10;99.90;;;;;;5010861;28;20045;-84
2022/10/10 03:10:59;;;;;;;8.48;4.55;;;7.80;99.90;;;;;;5028528;28;20053;-79
2022/10/10 03:13:25;;;;;;;13.15;4.55;;;7.70;99.90;;;;;;5012036;28;20041;-81
2022/10/10 03:15:51;;;;;;;9.18;4.60;;;7.70;99.90;;;;;;5011654;28;20407;-85
2022/10/10 03:18:17;;;;;;;8.75;4.95;;;8.10;99.90;;;;;;5030173;28;20045;-84
2022/10/10 03:20:50;;;;;;;9.60;4.53;;;7.60;99.90;;;;;;5010178;28;20050;-82
2022/10/10 03:23:16;;;;;;;8.70;4.70;;;7.60;99.90;;;;;;5018581;28;20049;-79
2022/10/10 03:25:42;;;;;;;7.07;4.70;;;7.70;99.90;;;;;;5025978;28;20037;-81
2022/10/10 03:28:11;;;;;;;6.18;4.32;;;7.60;99.90;;;;;;5021961;28;20053;-81
2022/10/10 03:30:38;;;;;;;8.02;4.03;;;7.60;99.90;;;;;;5029337;28;20049;-83
2022/10/10 03:33:05;;;;;;;16.52;5.00;;;7.60;99.90;;;;;;5011149;28;20045;-82
2022/10/10 03:35:31;;;;;;;10.25;5.13;;;7.60;99.90;;;;;;5029012;28;20049;-82
2022/10/10 03:37:57;;;;;;;10.73;5.10;;;7.50;99.90;;;;;;5028574;28;20188;-82
2022/10/10 03:40:23;;;;;;;8.15;5.10;;;7.50;99.90;;;;;;5028927;28;20044;-85
2022/10/10 03:42:51;;;;;;;10.05;4.90;;;7.50;99.90;;;;;;5024070;28;20136;-84
2022/10/10 03:45:17;;;;;;;8.75;4.97;;;7.50;99.90;;;;;;5023518;28;20611;-84
2022/10/10 03:47:42;;;;;;;12.15;5.15;;;7.50;99.90;;;;;;5028673;28;20041;-83
2022/10/10 03:50:08;;;;;;;7.45;4.95;;;7.50;99.90;;;;;;5011694;28;20412;-85
2022/10/10 03:52:43;;;;;;;8.38;5.00;;;8.00;99.90;;;;;;5011189;28;20128;-84
2022/10/10 03:55:09;;;;;;;7.20;4.55;;;7.50;99.90;;;;;;5021297;28;20482;-80
2022/10/10 03:57:43;;;;;;;12.13;5.53;;;7.50;99.90;;;;;;5010552;28;20048;-86
2022/10/10 04:00:10;;;;;;;8.75;5.22;;;7.40;99.90;;;;;;5020852;28;20046;-83
2022/10/10 04:02:36;;;;;;;9.63;4.88;;;7.40;99.90;;;;;;5029039;28;20045;-84
2022/10/10 04:05:02;;;;;;;11.68;5.13;;;7.60;99.90;;;;;;5028712;28;20064;-83
2022/10/10 04:07:28;;;;;;;9.95;5.05;;;7.40;99.90;;;;;;5010432;28;20033;-85
2022/10/10 04:09:54;;;;;;;9.40;5.15;;;7.40;99.90;;;;;;5028524;28;20045;-82
2022/10/10 04:12:19;;;;;;;7.20;4.75;;;7.40;99.90;;;;;;5021829;28;20064;-83
2022/10/10 04:14:45;;;;;;;12.95;5.80;;;7.90;99.90;;;;;;5021755;28;20791;-83
2022/10/10 04:17:10;;;;;;;8.52;5.18;;;7.90;99.90;;;;;;5020032;28;20057;-84
2022/10/10 04:19:36;;;;;;;9.15;5.93;;;7.40;99.90;;;;;;5027774;28;20650;-84
2022/10/10 04:22:02;;;;;;;10.85;5.40;;;7.40;99.90;;;;;;5028617;28;20041;-84
2022/10/10 04:24:28;;;;;;;10.50;5.30;;;7.40;99.90;;;;;;5010800;28;20041;-84
2022/10/10 04:26:53;;;;;;;8.80;5.63;;;7.30;99.90;;;;;;5028992;28;20041;-83
2022/10/10 04:29:19;;;;;;;9.63;5.22;;;7.40;99.90;;;;;;5027997;28;20119;-81
2022/10/10 04:31:44;;;;;;;10.20;5.18;;;7.30;99.90;;;;;;5011097;28;20042;-85
2022/10/10 04:34:10;;;;;;;13.52;6.30;;;7.30;99.90;;;;;;5028324;28;20049;-84
2022/10/10 04:36:36;;;;;;;8.90;5.18;;;7.30;99.90;;;;;;5011264;28;20345;-83
2022/10/10 04:39:02;;;;;;;8.70;5.13;;;7.80;99.90;;;;;;5026934;28;20046;-82
2022/10/10 04:41:27;;;;;;;11.45;5.80;;;7.30;99.90;;;;;;5028081;28;20073;-81
2022/10/10 04:43:55;;;;;;;11.68;5.80;;;7.30;99.90;;;;;;5028705;28;20057;-84
2022/10/10 04:46:21;;;;;;;10.68;5.47;;;7.90;99.90;;;;;;5010370;28;20096;-84
2022/10/10 04:48:47;;;;;;;9.50;5.45;;;7.30;99.90;;;;;;5011176;28;20080;-85
2022/10/10 04:51:12;;;;;;;11.35;5.70;;;7.30;99.90;;;;;;5027549;28;20560;-84
2022/10/10 04:53:38;;;;;;;9.65;5.72;;;7.90;99.90;;;;;;4999862;28;20060;-79
2022/10/10 04:56:04;;;;;;;9.75;5.47;;;7.20;99.90;;;;;;5024117;28;20128;-83
2022/10/10 04:58:29;;;;;;;10.43;5.72;;;7.20;99.90;;;;;;5027859;28;20127;-84
2022/10/10 05:00:55;;;;;;;9.50;5.32;;;7.40;99.90;;;;;;5009947;28;20041;-81
2022/10/10 05:03:25;;;;;;;9.88;6.07;;;7.20;99.90;;;;;;5020789;28;20108;-86
2022/10/10 05:05:51;;;;;;;8.48;5.95;;;7.80;99.90;;;;;;5010377;28;20053;-86
2022/10/10 05:08:17;;;;;;;15.23;6.43;;;7.20;99.90;;;;;;4986670;28;20099;-81
2022/10/10 05:10:45;;;;;;;9.18;5.78;;;7.20;99.90;;;;;;5021389;28;20041;-82
2022/10/10 05:13:14;;;;;;;8.98;5.38;;;7.20;99.90;;;;;;5027677;28;20148;-83
2022/10/10 05:15:43;;;;;;;12.10;6.22;;;7.70;99.90;;;;;;5027930;28;20044;-85
2022/10/10 05:18:09;;;;;;;11.40;5.93;;;7.20;99.90;;;;;;5027670;28;20132;-84
2022/10/10 05:20:35;;;;;;;9.65;5.50;;;7.20;99.90;;;;;;4994623;28;20124;-84
2022/10/10 05:23:02;;;;;;;11.48;6.50;;;7.20;99.90;;;;;;5009144;28;20048;-80
2022/10/10 05:25:27;;;;;;;11.50;6.20;;;7.20;99.90;;;;;;5027640;28;20053;-82
2022/10/10 05:27:53;;;;;;;12.63;5.93;;;7.80;99.90;;;;;;5010346;28;20123;-83
2022/10/10 05:30:19;;;;;;;11.25;6.20;;;7.20;99.90;;;;;;5028399;28;20050;-80
2022/10/10 05:32:45;;;;;;;8.35;5.30;;;7.20;99.90;;;;;;5028888;28;20411;-77
2022/10/10 05:35:13;;;;;;;8.77;5.63;;;7.20;99.90;;;;;;5031798;28;20053;-85
2022/10/10 05:37:38;;;;;;;11.13;6.22;;;7.20;99.90;;;;;;5013611;28;20038;-82
2022/10/10 05:40:05;;;;;;;14.45;6.22;;;7.10;99.90;;;;;;5009621;28;20782;-84
2022/10/10 05:42:30;;;;;;;10.00;5.88;;;7.10;99.90;;;;;;5005000;28;20058;-83
2022/10/10 05:44:56;;;;;;;13.82;6.40;;;7.10;99.90;;;;;;5011793;28;20034;-81
2022/10/10 05:47:29;;;;;;;13.43;6.85;;;7.10;99.90;;;;;;5010529;28;20416;-85
2022/10/10 05:49:55;;;;;;;12.05;6.43;;;7.10;99.90;;;;;;5011236;28;20074;-84
2022/10/10 05:52:24;;;;;;;10.20;5.85;;;7.20;99.90;;;;;;5011739;28;20096;-80
2022/10/10 05:54:49;;;;;;;13.70;6.30;;;7.20;99.90;;;;;;5010681;28;20085;-82
2022/10/10 05:57:18;;;;;;;12.10;6.30;;;7.20;99.90;;;;;;5002378;28;20549;-84
2022/10/10 05:59:44;;;;;;;13.25;6.47;;;7.60;99.90;;;;;;5009508;28;20136;-82
2022/10/10 06:02:12;;;;;;;11.70;6.10;;;7.10;99.90;;;;;;5011471;28;22013;-88
2022/10/10 06:04:38;;;;;;;10.48;5.72;;;7.10;99.90;;;;;;5010987;28;20042;-87
2022/10/10 06:07:04;;;;;;;14.13;6.45;;;7.20;99.90;;;;;;5010771;28;20037;-86
2022/10/10 06:09:30;;;;;;;11.10;6.40;;;7.80;99.90;;;;;;5010036;28;20040;-87
2022/10/10 06:12:05;;;;;;;12.65;6.22;;;7.70;99.90;;;;;;4992570;28;20085;-87
2022/10/10 06:14:33;;;;;;;9.25;6.47;;;7.10;99.90;;;;;;5008605;28;20041;-88
2022/10/10 06:16:59;;;;;;;9.13;5.75;;;7.20;99.90;;;;;;5000850;28;20038;-87
2022/10/10 06:19:34;;;;;;;10.90;6.72;;;7.20;99.90;;;;;;5004026;28;20104;-86
2022/10/10 06:22:00;;;;;;;9.18;5.82;;;7.00;99.90;;;;;;5009161;28;20477;-87
2022/10/10 06:24:25;;;;;;;13.55;5.85;;;7.20;99.90;;;;;;5009994;28;20149;-86
2022/10/10 06:26:51;;;;;;;11.52;6.63;;;8.00;99.90;;;;;;5024459;23;20046;-86
2022/10/10 06:29:17;;;;;;;12.02;6.15;;;8.00;99.90;;;;;;5043867;28;20086;-86
2022/10/10 06:31:57;;;;;;;12.38;6.40;;;7.70;99.90;;;;;;5020659;28;20106;-85
2022/10/10 06:34:22;;;;;;;10.57;6.35;;;8.00;99.90;;;;;;5019717;28;20485;-86
2022/10/10 06:36:50;;;;;;;11.10;5.88;;;7.80;99.90;;;;;;5056354;28;20048;-86
2022/10/10 06:39:36;;;;;;;11.63;6.53;;;7.90;99.90;;;;;;5040860;28;20098;-81
2022/10/10 06:42:01;;;;;;;11.45;6.53;;;7.90;99.90;;;;;;5061178;28;20055;-79
2022/10/10 06:44:27;;;;;;;10.70;6.50;;;7.40;99.90;;;;;;5056843;28;20053;-88
2022/10/10 06:46:53;;;;;;;12.35;6.68;;;8.00;99.90;;;;;;5023433;28;20049;-87
2022/10/10 06:49:25;;;;;;;11.70;6.22;;;8.00;99.90;;;;;;5026154;28;20399;-87
2022/10/10 06:51:50;;;;;;;11.93;6.95;;;7.90;99.90;;;;;;5044010;28;20440;-86
2022/10/10 06:54:16;;;;;;;12.82;6.22;;;7.50;99.90;;;;;;5058623;28;20077;-88
2022/10/10 06:56:52;;;;;;;15.02;6.97;;;8.40;99.90;;;;;;5020136;28;20048;-79
2022/10/10 06:59:17;;;;;;;12.55;6.55;;;7.50;99.90;;;;;;5040007;28;20056;-82
2022/10/10 07:01:43;;;;;;;10.43;6.03;;;7.90;99.90;;;;;;5036716;28;20538;-87
2022/10/10 07:04:19;;;;;;;9.68;6.13;;;7.70;99.90;;;;;;5027626;28;20056;-87
2022/10/10 07:06:45;;;;;;;13.35;6.03;;;7.90;99.90;;;;;;5036597;28;20045;-88
2022/10/10 07:09:23;;;;;;;13.82;6.55;;;8.30;99.90;;;;;;5036748;28;20562;-87
2022/10/10 07:11:49;;;;;;;10.63;6.50;;;8.70;99.90;;;;;;5033551;28;20807;-83
2022/10/10 07:14:14;;;;;;;12.57;6.45;;;8.30;99.90;;;;;;5036536;28;20128;-87
2022/10/10 07:16:49;;;;;;;8.82;6.60;;;8.40;99.90;;;;;;5042894;28;20040;-88
2022/10/10 07:19:15;;;;;;;11.20;6.32;;;8.90;99.90;;;;;;5027396;28;20111;-83
2022/10/10 07:21:46;;;;;;;15.45;7.00;;;8.90;99.90;;;;;;5057467;28;20045;-81
2022/10/10 07:24:12;;;;;;;11.00;6.72;;;8.80;99.90;;;;;;5057939;28;20079;-82
2022/10/10 07:26:38;;;;;;;12.73;6.13;;;8.70;99.90;;;;;;5053638;28;20041;-82
2022/10/10 07:29:05;;;;;;;13.27;6.82;;;8.40;99.90;;;;;;5041078;28;20118;-85
2022/10/10 07:31:32;;;;;;;10.25;6.80;;;8.50;99.90;;;;;;5039412;28;20434;-83
2022/10/10 07:33:58;;;;;;;11.93;6.43;;;8.50;99.90;;;;;;5058226;28;20075;-82
2022/10/10 07:36:29;;;;;;;11.00;6.68;;;8.20;99.90;;;;;;5058717;28;20461;-86
2022/10/10 07:38:55;;;;;;;13.65;6.97;;;8.60;99.90;;;;;;5056951;28;20069;-86
2022/10/10 07:41:21;;;;;;;12.60;7.60;;;9.10;99.90;;;;;;5058851;28;20114;-84
2022/10/10 07:43:56;;;;;;;13.13;6.63;;;8.80;99.90;;;;;;5042880;28;20487;-82
2022/10/10 07:46:22;;;;;;;14.27;7.18;;;8.80;99.90;;;;;;5059341;28;20041;-84
2022/10/10 07:48:48;;;;;;;11.50;7.28;;;8.80;99.90;;;;;;5061363;28;20039;-82
2022/10/10 07:51:14;;;;;;;12.20;6.63;;;9.40;99.90;;;;;;5042746;28;20852;-82
2022/10/10 07:53:40;;;;;;;11.98;7.13;;;9.50;99.90;;;;;;5057646;28;20048;-76
2022/10/10 07:56:07;;;;;;;12.25;6.50;;;9.00;99.90;;;;;;5027505;28;20091;-85
2022/10/10 07:58:34;;;;;;;12.73;7.20;;;9.50;99.90;;;;;;5059149;28;20044;-83
2022/10/10 08:01:08;;;;;;;13.32;7.13;;;9.50;99.90;;;;;;5060666;28;20040;-83
2022/10/10 08:03:34;;;;;;;9.77;7.13;;;9.40;99.90;;;;;;5058860;28;20044;-84
2022/10/10 08:06:03;;;;;;;12.32;7.05;;;9.90;99.90;;;;;;5057253;28;20609;-85
2022/10/10 08:08:29;;;;;;;14.27;7.55;;;9.50;99.90;;;;;;5046613;28;20116;-85
2022/10/10 08:10:56;;;;;;;13.18;8.15;;;10.10;99.90;;;;;;5049301;28;20041;-83
2022/10/10 08:13:22;;;;;;;10.75;7.13;;;10.10;99.90;;;;;;5034685;28;20057;-86
2022/10/10 08:15:50;;;;;;;13.00;7.07;;;9.90;99.90;;;;;;5047265;28;20045;-84
2022/10/10 08:18:15;;;;;;;14.05;7.63;;;10.10;99.90;;;;;;5045989;28;20053;-80
2022/10/10 08:20:41;;;;;;;11.63;7.03;;;10.30;99.90;;;;;;5042976;28;20037;-88
2022/10/10 08:23:07;;;;;;;15.50;7.40;;;10.40;99.90;;;;;;5038971;28;20048;-85
2022/10/10 08:25:32;;;;;;;15.25;7.50;;;10.80;99.90;;;;;;5051415;28;20055;-82
2022/10/10 08:28:01;;;;;;;12.45;6.88;;;10.70;99.90;;;;;;5058191;28;20052;-83
2022/10/10 08:30:27;;;;;;;12.43;6.97;;;10.90;99.90;;;;;;5060767;28;20051;-83
2022/10/10 08:32:53;;;;;;;13.32;7.30;;;10.90;99.90;;;;;;5058179;28;20407;-84
2022/10/10 08:35:18;;;;;;;15.48;7.13;;;11.00;99.90;;;;;;5056626;28;20391;-81
2022/10/10 08:37:44;;;;;;;12.38;7.25;;;11.20;99.90;;;;;;5057068;28;20048;-84
2022/10/10 08:40:16;;;;;;;12.77;7.32;;;11.60;99.90;;;;;;5056896;28;20047;-85
2022/10/10 08:42:49;;;;;;;12.63;6.85;;;11.90;99.90;;;;;;5057290;28;20656;-77
2022/10/10 08:45:26;;;;;;;14.30;7.40;;;12.00;99.90;;;;;;5058220;28;20068;-82
2022/10/10 08:48:22;;;;;;;9.45;6.25;;;12.10;99.90;;;;;;5035738;28;20316;-85
2022/10/10 08:51:14;;;;;;;11.00;6.32;;;11.90;99.90;;;;;;5024081;28;20049;-82
2022/10/10 08:53:50;;;;;;;11.07;7.07;;;12.50;99.90;;;;;;5048199;28;20258;-88
2022/10/10 08:56:24;;;;;;;10.57;6.65;;;12.70;99.90;;;;;;5069859;28;20040;-86
2022/10/10 08:58:56;;;;;;;15.30;6.95;;;12.30;99.90;;;;;;5069636;28;20064;-83
2022/10/10 09:01:33;;;;;;;10.93;7.38;;;12.50;99.90;;;;;;5069459;28;20045;-86
2022/10/10 09:04:03;;;;;;;11.27;6.35;;;13.50;99.90;;;;;;5068330;28;20138;-86
2022/10/10 09:06:38;;;;;;;13.82;7.43;;;13.40;99.90;;;;;;5050956;28;20052;-81
2022/10/10 09:09:13;;;;;;;15.60;6.82;;;13.10;99.90;;;;;;5050815;28;20060;-84
2022/10/10 09:11:50;;;;;;;10.05;7.28;;;13.20;99.90;;;;;;5032991;28;20374;-82
2022/10/10 09:14:30;;;;;;;10.43;6.95;;;13.30;99.90;;;;;;5025354;28;20063;-85
2022/10/10 09:17:36;;;;;;;12.65;6.85;;;13.40;99.90;;;;;;5018838;28;20081;-90
2022/10/10 09:20:30;;;;;;;16.55;7.38;;;13.50;99.90;;;;;;5041700;28;20072;-83
2022/10/10 09:23:23;;;;;;;12.40;7.10;;;13.50;99.90;;;;;;5060899;28;20506;-83
2022/10/10 09:25:58;;;;;;;10.13;6.28;;;13.40;99.90;;;;;;5055707;28;20045;-86
2022/10/10 09:28:49;;;;;;;11.70;6.82;;;13.50;99.90;;;;;;5017695;28;20052;-88
2022/10/10 09:31:20;;;;;;;13.07;7.03;;;13.60;99.90;;;;;;5052784;28;20491;-80
2022/10/10 09:34:15;;;;;;;12.55;6.95;;;13.90;99.90;;;;;;5072879;28;20052;-83
2022/10/10 09:36:44;;;;;;;;;;;13.60;99.90;;;;;;5057344;28;20037;-89
2022/10/10 09:39:19;;;;;;;12.52;6.88;;;13.70;99.90;;;;;;5025814;28;19944;-83
2022/10/10 09:42:08;;;;;;;10.80;6.40;;;13.80;99.90;;;;;;5029487;28;20045;-84
2022/10/10 09:44:46;;;;;;;12.73;7.22;;;13.80;99.90;;;;;;5061902;28;20044;-85
2022/10/10 09:47:14;;;;;;;14.05;6.60;;;14.20;99.90;;;;;;5048435;28;20052;-81
2022/10/10 09:49:41;;;;;;;17.13;7.00;;;14.10;99.90;;;;;;5060103;28;20051;-84
2022/10/10 09:52:22;;;;;;;11.88;6.72;;;14.30;99.90;;;;;;5060199;28;20041;-83
2022/10/10 09:54:49;;;;;;;12.52;6.57;;;14.20;99.90;;;;;;5035976;28;20061;-87
2022/10/10 09:57:25;;;;;;;10.50;6.68;;;14.30;99.90;;;;;;5059649;28;20979;-82
2022/10/10 09:59:56;;;;;;;13.38;6.47;;;14.40;99.90;;;;;;5019418;28;20041;-85
2022/10/10 10:02:27;;;;;;;17.55;7.13;;;14.60;99.90;;;;;;5050561;28;20408;-81
2022/10/10 10:04:54;;;;;;;14.00;6.90;;;14.60;99.90;;;;;;5059225;28;20064;-87
2022/10/10 10:07:47;;;;;;;11.10;6.05;;;14.70;99.90;;;;;;5051560;28;20049;-84
2022/10/10 10:10:19;;;;;;;10.82;6.70;;;14.90;99.90;;;;;;5051609;28;20404;-83
2022/10/10 10:12:45;;;;;;;12.60;6.95;;;14.90;99.90;;;;;;5052249;28;20120;-81
2022/10/10 10:15:22;;;;;;;9.23;6.13;;;14.90;99.90;;;;;;5052341;28;20496;-83
2022/10/10 10:18:23;;;;;;;12.38;6.35;;;14.90;99.90;;;;;;5051823;28;20442;-85
2022/10/10 10:21:01;;;;;;;12.30;6.65;;;14.90;99.90;;;;;;5012635;28;20085;-87
2022/10/10 10:24:00;;;;;;;10.07;6.45;;;15.30;99.90;;;;;;5012432;28;20422;-86
2022/10/10 10:26:29;;;;;;;13.35;6.82;;;15.00;99.90;;;;;;4954198;28;20129;-84
2022/10/10 10:29:01;;;;;;;12.82;6.43;;;15.10;99.90;;;;;;4971666;28;20104;-86
2022/10/10 10:31:42;;;;;;;13.27;6.95;;;15.80;99.90;;;;;;4973942;28;20112;-81
2022/10/10 10:34:28;;;;;;;11.02;6.88;;;15.70;99.90;;;;;;4989777;28;20062;-86
2022/10/10 10:37:07;;;;;;;16.08;7.50;;;15.90;99.90;;;;;;4942249;28;20047;-87
2022/10/10 10:39:42;;;;;;;13.75;6.10;;;16.10;99.90;;;;;;4934718;29;20050;-87
2022/10/10 10:42:16;;;;;;;12.82;6.78;;;16.20;99.90;;;;;;4918925;28;20054;-82
2022/10/10 10:44:50;;;;;;;15.73;6.65;;;16.60;99.90;;;;;;4970203;28;20530;-85
2022/10/10 10:47:42;;;;;;;9.55;6.32;;;16.10;99.90;;;;;;4952416;28;20098;-85
2022/10/10 10:50:29;;;;;;;12.20;6.30;;;16.50;99.90;;;;;;4957344;28;20072;-82
2022/10/10 10:53:27;;;;;;;12.45;5.90;;;16.20;99.90;;;;;;4950994;28;20470;-82
2022/10/10 10:56:29;;;;;;;12.13;6.13;;;16.20;99.90;;;;;;4895459;29;20112;-83
2022/10/10 10:59:03;;;;;;;12.60;6.55;;;16.30;99.90;;;;;;4938728;29;20416;-86
2022/10/10 11:01:37;;;;;;;12.13;6.00;;;16.20;99.90;;;;;;4923641;29;20063;-85
2022/10/10 11:04:22;;;;;;;14.55;6.05;;;16.10;99.90;;;;;;4937189;29;20094;-85
2022/10/10 11:07:22;;;;;;;12.65;6.47;;;16.00;99.90;;;;;;4931171;29;20099;-86
2022/10/10 11:10:13;;;;;;;12.20;6.68;;;15.80;99.90;;;;;;4940892;29;20158;-84
2022/10/10 11:13:00;;;;;;;14.13;6.18;;;15.70;99.90;;;;;;4941187;29;20134;-84
2022/10/10 11:15:43;;;;;;;13.55;6.38;;;15.50;99.90;;;;;;4931412;29;20051;-83
2022/10/10 11:18:32;;;;;;;23.98;6.65;;;15.40;99.90;;;;;;4950272;29;20047;-87
2022/10/10 11:21:12;;;;;;;13.55;6.55;;;15.20;99.90;;;;;;4950914;29;20055;-88
2022/10/10 11:24:06;;;;;;;9.05;6.53;;;15.10;99.90;;;;;;4934970;29;20069;-81
2022/10/10 11:26:39;;;;;;;11.63;6.47;;;15.00;99.90;;;;;;4950861;28;20529;-83
2022/10/10 11:29:09;;;;;;;12.80;7.03;;;15.30;99.90;;;;;;4970260;28;20129;-87
2022/10/10 11:31:46;;;;;;;15.60;7.07;;;14.70;99.90;;;;;;4969297;28;20125;-87
2022/10/10 11:34:36;;;;;;;15.15;7.10;;;14.60;99.90;;;;;;5031643;28;20097;-84
2022/10/10 11:37:09;;;;;;;12.90;6.95;;;14.60;99.90;;;;;;5025222;28;20060;-85
2022/10/10 11:39:40;;;;;;;11.68;6.95;;;14.90;99.90;;;;;;5033220;28;20041;-89
2022/10/10 11:42:12;;;;;;;14.98;7.32;;;14.60;99.90;;;;;;5030282;28;20103;-86
2022/10/10 11:44:51;;;;;;;17.05;7.90;;;14.50;99.90;;;;;;5047322;28;20057;-84
2022/10/10 11:47:25;;;;;;;20.75;8.90;;;14.70;99.90;;;;;;5032920;28;20037;-94
2022/10/10 11:50:01;;;;;;;15.73;8.10;;;14.40;99.90;;;;;;5038168;28;20125;-86
2022/10/10 11:52:36;;;;;;;14.40;7.95;;;14.40;99.90;;;;;;5037096;28;20292;-88
2022/10/10 11:55:21;;;;;;;19.13;8.73;;;14.40;99.90;;;;;;5023845;28;20042;-81
2022/10/10 11:57:56;;;;;;;16.38;8.50;;;14.30;99.90;;;;;;5040041;28;20053;-88
2022/10/10 12:00:22;;;;;;;13.90;7.95;;;14.30;99.90;;;;;;5036869;28;20040;-82
2022/10/10 12:02:47;;;;;;;17.15;8.23;;;14.50;99.90;;;;;;5037534;28;20045;-88
2022/10/10 12:05:23;;;;;;;15.82;8.57;;;14.70;99.90;;;;;;5034293;28;20049;-85
2022/10/10 12:07:58;;;;;;;14.60;8.30;;;14.50;99.90;;;;;;5035321;28;20037;-78
2022/10/10 12:10:51;;;;;;;14.90;8.77;;;14.20;99.90;;;;;;5034691;28;20037;-81
2022/10/10 12:13:39;;;;;;;17.65;8.70;;;14.10;99.90;;;;;;5028428;28;20058;-80
2022/10/10 12:16:09;;;;;;;18.05;8.80;;;14.10;99.90;;;;;;5010914;28;20061;-82
2022/10/10 12:18:51;;;;;;;18.33;9.25;;;14.10;99.90;;;;;;5037950;28;20483;-80
2022/10/10 12:21:28;;;;;;;16.23;8.90;;;14.10;99.90;;;;;;5029031;28;20057;-82
2022/10/10 12:24:12;;;;;;;16.10;8.50;;;14.10;99.90;;;;;;5028472;28;20045;-83
2022/10/10 12:26:55;;;;;;;17.48;8.70;;;14.00;99.90;;;;;;5028130;28;20560;-81
2022/10/10 12:29:48;;;;;;;14.68;9.05;;;14.00;99.90;;;;;;5050021;28;20495;-82
2022/10/10 12:32:13;;;;;;;15.68;9.23;;;14.00;99.90;;;;;;5048553;28;20056;-79
2022/10/10 12:34:48;;;;;;;15.88;9.07;;;14.00;99.90;;;;;;5049085;28;20033;-83
2022/10/10 12:37:28;;;;;;;15.63;9.25;;;13.90;99.90;;;;;;5010817;28;20057;-88
2022/10/10 12:40:14;;;;;;;16.98;9.65;;;14.00;99.90;;;;;;5049908;28;20041;-87
2022/10/10 12:42:46;;;;;;;18.02;9.30;;;13.90;99.90;;;;;;5029873;28;20045;-81
2022/10/10 12:45:38;;;;;;;15.88;9.10;;;14.20;99.90;;;;;;5069157;28;20060;-80
2022/10/10 12:48:17;;;;;;;14.18;9.32;;;14.20;99.90;;;;;;5057667;28;20041;-85
2022/10/10 12:50:52;;;;;;;16.92;10.02;;;14.10;99.90;;;;;;5050930;28;20044;-83
2022/10/10 12:53:19;;;;;;;;;;;14.00;99.90;;;;;;5044164;28;20059;-83
2022/10/10 12:55:51;;;;;;;18.55;9.38;;;13.90;99.90;;;;;;5034106;28;19935;-85
2022/10/10 12:58:28;;;;;;;16.45;9.95;;;14.30;99.90;;;;;;5017528;28;20065;-81
2022/10/10 13:00:59;;;;;;;17.25;10.18;;;13.80;99.90;;;;;;5039855;28;20072;-79
2022/10/10 13:03:41;;;;;;;18.83;10.27;;;13.80;99.90;;;;;;5035813;28;20099;-79
2022/10/10 13:06:19;;;;;;;19.80;10.52;;;14.00;99.90;;;;;;5034135;28;20088;-83
2022/10/10 13:08:45;;;;;;;18.65;10.15;;;13.80;99.90;;;;;;5044211;28;20387;-84
2022/10/10 13:11:14;;;;;;;14.23;10.65;;;14.40;99.90;;;;;;5037527;28;20048;-82
2022/10/10 13:13:48;;;;;;;18.63;10.93;;;13.80;99.90;;;;;;5043651;28;20049;-84